Aurora — ZCDW9 — position and weather

sailwx.info

Track history (hours):
 
Tides and Currents Weather Stations Pressure Air Temp Water Temp Dewpoint Dewpoint Depression Visibility Wind Speed Wind Dir Waves Ship Positions

Aurora (Bermuda)

Last reported at 2019-Jun-16 05:26 UTC. Time now 2019-Jun-16 15:24 UTC.
Position N 43°27' W 003°49'.

Length 271 m; draft 8.3 m.

Type: Ship. MMSI: 310555970.

Date/timePositionNaut miles runAvg speedWind from/ knotsBaromVisibWave heightAir tempDewpointWater temp
2019-Jun-16 05:26N 43°27' W 003°49'3 6.1
2019-Jun-16 04:58N 43°28' W 003°45'4 9.0
2019-Jun-16 04:30N 43°32' W 003°45'611.5
2019-Jun-16 04:01N 43°38' W 003°47'612.1
2019-Jun-16 03:30N 43°44' W 003°49'612.5
2019-Jun-16 03:00N 43°50' W 003°51'612.6
2019-Jun-16 02:31N 43°56' W 003°53'612.4
2019-Jun-16 02:00N 44°02' W 003°55'612.4
2019-Jun-16 01:30N 44°08' W 003°57'1012.2
2019-Jun-16 00:40N 44°18' W 004°00'312.1
2019-Jun-16 00:27N 44°20' W 004°01'714.5
2019-Jun-15 23:58N 44°27' W 004°03'3311.2
2019-Jun-15 21:00N 45°00' W 004°12'14417.4 240 / 251021.427.0 15.013.215.0
2019-Jun-15 12:41N 47°20' W 005°01'2215.4
2019-Jun-15 11:15N 47°42' W 005°09'515.4
2019-Jun-15 10:56N 47°46' W 005°11'614.9
2019-Jun-15 10:31N 47°53' W 005°13'814.8
2019-Jun-15 10:00N 47°60' W 005°15'815.4
2019-Jun-15 09:31N 48°07' W 005°18'816.1
2019-Jun-15 09:01N 48°15' W 005°21'816.8
2019-Jun-15 08:31N 48°23' W 005°24'816.1
2019-Jun-15 08:00N 48°31' W 005°22'917.8
2019-Jun-15 07:31N 48°38' W 005°14'917.6
2019-Jun-15 07:01N 48°45' W 005°05'917.1
2019-Jun-15 06:31N 48°50' W 004°55'816.3
2019-Jun-15 06:01N 48°56' W 004°46'815.5
2019-Jun-15 05:30N 49°01' W 004°37'3514.1
2019-Jun-15 03:01N 49°27' W 004°00'114.5
2019-Jun-15 02:56N 49°28' W 003°59'614.3
2019-Jun-15 02:31N 49°31' W 003°51'714.7
2019-Jun-15 02:01N 49°34' W 003°41'815.1
2019-Jun-15 01:30N 49°38' W 003°31'815.8
2019-Jun-15 01:00N 49°43' W 003°21'816.8
2019-Jun-15 00:30N 49°48' W 003°12'917.3
2019-Jun-15 00:01N 49°55' W 003°03'816.5
2019-Jun-14 23:31N 49°60' W 002°52'917.9
2019-Jun-14 23:01N 50°02' W 002°39'918.1
2019-Jun-14 22:31N 50°05' W 002°26'1117.7
2019-Jun-14 21:55N 50°10' W 002°11'717.1
2019-Jun-14 21:30N 50°13' W 002°01'916.4
2019-Jun-14 20:59N 50°17' W 001°49'715.7
2019-Jun-14 20:30N 50°20' W 001°39'815.1
2019-Jun-14 20:00N 50°24' W 001°28'714.5
2019-Jun-14 19:29N 50°27' W 001°18'713.8
2019-Jun-14 19:00N 50°30' W 001°08'613.0
2019-Jun-14 18:30N 50°35' W 001°01'713.7
2019-Jun-14 18:00N 50°41' W 000°58'611.2
2019-Jun-14 17:30N 50°44' W 001°05'917.6
2019-Jun-14 17:01N 50°47' W 001°18'5 9.1
2019-Jun-14 16:30N 50°51' W 001°21'4 8.7
2019-Jun-14 16:00N 50°54' W 001°26'0 0.1
2019-Jun-14 15:19N 50°54' W 001°26'0 0.0
2019-Jun-14 14:58N 50°54' W 001°26'0 0.0
2019-Jun-14 14:25N 50°54' W 001°26'0 0.0
2019-Jun-14 13:55N 50°54' W 001°26'0 0.0
2019-Jun-14 13:28N 50°54' W 001°26'0 0.0
2019-Jun-14 12:58N 50°54' W 001°26'0 0.0
2019-Jun-14 12:19N 50°54' W 001°26'0 0.0
2019-Jun-14 11:58N 50°54' W 001°26'0 0.0
2019-Jun-14 11:28N 50°54' W 001°26'0 0.0
2019-Jun-14 10:55N 50°54' W 001°26'0 0.0
2019-Jun-14 10:22N 50°54' W 001°26'0 0.0
2019-Jun-14 09:55N 50°54' W 001°26'0 0.0
2019-Jun-14 09:28N 50°54' W 001°26'0 0.0
2019-Jun-14 08:55N 50°54' W 001°26'0 0.0
2019-Jun-14 08:25N 50°54' W 001°26'0 0.0
2019-Jun-14 07:55N 50°54' W 001°26'0 0.0
2019-Jun-14 07:25N 50°54' W 001°26'0 0.0
2019-Jun-14 06:46N 50°54' W 001°26'0 0.0
2019-Jun-14 06:25N 50°54' W 001°26'0 0.0
2019-Jun-14 05:55N 50°54' W 001°26'0 0.6
2019-Jun-14 05:30N 50°54' W 001°26'1 2.9
2019-Jun-14 05:00N 50°53' W 001°24'4 8.7
2019-Jun-14 04:31N 50°50' W 001°19'4 7.9
2019-Jun-14 04:01N 50°46' W 001°18'713.5
2019-Jun-14 03:30N 50°45' W 001°08'713.9
2019-Jun-14 03:01N 50°42' W 000°58'5 9.3
2019-Jun-14 02:31N 50°37' W 000°59'714.8
2019-Jun-14 02:01N 50°31' W 001°05'714.6
2019-Jun-14 01:30N 50°29' W 001°16'1012.7
2019-Jun-14 00:45N 50°27' W 001°30'310.7
2019-Jun-14 00:26N 50°26' W 001°35'410.4
2019-Jun-14 00:00N 50°24' W 001°42'510.0
2019-Jun-13 23:30N 50°23' W 001°50'611.0
2019-Jun-13 23:00N 50°21' W 001°58'612.7
2019-Jun-13 22:30N 50°19' W 002°07'713.1
2019-Jun-13 22:00N 50°18' W 002°17'713.7
2019-Jun-13 21:30N 50°16' W 002°28'714.2
2019-Jun-13 21:00N 50°15' W 002°39'714.7
2019-Jun-13 20:30N 50°14' W 002°50'714.7
2019-Jun-13 20:01N 50°11' W 003°01'815.3
2019-Jun-13 19:31N 50°05' W 003°08'815.4
2019-Jun-13 19:01N 49°59' W 003°16'815.5
2019-Jun-13 18:30N 49°56' W 003°27'815.7
2019-Jun-13 18:00N 49°51' W 003°36'815.8
2019-Jun-13 17:30N 49°46' W 003°46'815.8
2019-Jun-13 17:01N 49°42' W 003°56'815.9
2019-Jun-13 16:30N 49°37' W 004°06'816.0
2019-Jun-13 16:01N 49°32' W 004°16'5716.5
2019-Jun-13 12:32N 48°55' W 005°22'117.5
2019-Jun-13 12:29N 48°54' W 005°23'817.5
2019-Jun-13 12:00N 48°49' W 005°33'9519.0
2019-Jun-13 07:00N 47°24' W 006°36'36715.9 280 / 121010.410.8 13.0 7.915.3
2019-Jun-12 08:00N 41°42' W 009°42'13414.4 040 / 201017.210.8 15.0 9.217.4
2019-Jun-11 22:40N 39°28' W 009°46'315.4
2019-Jun-11 22:30N 39°25' W 009°46'815.7
2019-Jun-11 22:00N 39°17' W 009°46'815.7
2019-Jun-11 21:30N 39°10' W 009°44'815.5
2019-Jun-11 21:00N 39°02' W 009°44'815.5
2019-Jun-11 20:31N 38°54' W 009°44'815.4
2019-Jun-11 20:00N 38°46' W 009°43'815.1
2019-Jun-11 19:30N 38°39' W 009°40'816.2
2019-Jun-11 19:00N 38°37' W 009°31'714.4
2019-Jun-11 18:30N 38°38' W 009°21'4 8.9
2019-Jun-11 18:00N 38°41' W 009°17'5 9.2
2019-Jun-11 17:30N 38°41' W 009°11'3 6.6
2019-Jun-11 17:00N 38°43' W 009°07'0 0.0
2019-Jun-11 16:29N 38°43' W 009°07'0 0.0
2019-Jun-11 15:59N 38°43' W 009°07'0 0.0
2019-Jun-11 15:29N 38°43' W 009°07'0 0.0
2019-Jun-11 14:59N 38°43' W 009°07'0 0.0
2019-Jun-11 14:29N 38°43' W 009°07'0 0.0
2019-Jun-11 13:59N 38°43' W 009°07'0 0.0
2019-Jun-11 13:29N 38°43' W 009°07'0 0.0
2019-Jun-11 12:59N 38°43' W 009°07'0 0.0
2019-Jun-11 12:29N 38°43' W 009°07'0 0.0
2019-Jun-11 11:59N 38°43' W 009°07'0 0.0
2019-Jun-11 11:29N 38°43' W 009°07'0 0.0
2019-Jun-11 10:59N 38°43' W 009°07'0 0.0
2019-Jun-11 10:29N 38°43' W 009°07'0 0.0
2019-Jun-11 09:59N 38°43' W 009°07'0 0.0
2019-Jun-11 09:29N 38°43' W 009°07'0 0.0
2019-Jun-11 08:59N 38°43' W 009°07'0 0.0
2019-Jun-11 08:29N 38°43' W 009°07'0 0.0
2019-Jun-11 07:59N 38°43' W 009°07'0 0.1
2019-Jun-11 07:30N 38°43' W 009°07'3 5.0
2019-Jun-11 07:00N 38°41' W 009°10'612.0
2019-Jun-11 06:30N 38°41' W 009°18'815.5
2019-Jun-11 06:00N 38°35' W 009°24'816.2
2019-Jun-11 05:30N 38°27' W 009°24'817.0
2019-Jun-11 05:00N 38°18' W 009°24'917.3
2019-Jun-11 04:30N 38°09' W 009°24'917.4
2019-Jun-11 04:00N 38°01' W 009°24'917.8
2019-Jun-11 03:30N 37°52' W 009°23'917.9
2019-Jun-11 03:00N 37°43' W 009°23'917.9
2019-Jun-11 02:30N 37°34' W 009°23'1017.9
2019-Jun-11 01:57N 37°24' W 009°22'818.0
2019-Jun-11 01:30N 37°16' W 009°22'1619.8
2019-Jun-11 00:41N 36°60' W 009°22'421.0
2019-Jun-11 00:30N 36°56' W 009°21'1320.4
2019-Jun-10 23:52N 36°46' W 009°12'821.1
2019-Jun-10 23:30N 36°43' W 009°02'1020.8
2019-Jun-10 23:00N 36°40' W 008°50'1220.4
2019-Jun-10 22:26N 36°37' W 008°36'818.6
2019-Jun-10 22:00N 36°34' W 008°27'1017.7
2019-Jun-10 21:26N 36°31' W 008°14'817.8
2019-Jun-10 21:00N 36°29' W 008°06'917.7
2019-Jun-10 20:30N 36°26' W 007°55'234 9.5
2019-Jun-09 20:01N 36°22' W 003°05'6213.9
2019-Jun-09 15:34N 36°36' W 001°50'114.1
2019-Jun-09 15:30N 36°37' W 001°49'16114.0
2019-Jun-09 04:00N 38°12' E 000°54'7817.9 350 / 351013.110.8 20.016.722.2
2019-Jun-08 23:38N 39°03' E 002°10'1416.1
2019-Jun-08 22:45N 39°14' E 002°21'415.9
2019-Jun-08 22:30N 39°16' E 002°25'815.7
2019-Jun-08 22:00N 39°21' E 002°33'815.6
2019-Jun-08 21:30N 39°28' E 002°37'510.4
2019-Jun-08 21:00N 39°33' E 002°38'1 1.0
2019-Jun-08 20:29N 39°33' E 002°38'0 0.0
2019-Jun-08 19:59N 39°33' E 002°38'0 0.0
2019-Jun-08 19:29N 39°33' E 002°38'0 0.0
2019-Jun-08 18:59N 39°33' E 002°38'0 0.0
2019-Jun-08 18:29N 39°33' E 002°38'0 0.0
2019-Jun-08 17:59N 39°33' E 002°38'0 0.0
2019-Jun-08 17:29N 39°33' E 002°38'0 0.0
2019-Jun-08 16:59N 39°33' E 002°38'0 0.0
2019-Jun-08 16:29N 39°33' E 002°38'0 0.0
2019-Jun-08 15:59N 39°33' E 002°38'0 0.0
2019-Jun-08 15:29N 39°33' E 002°38'0 0.0
2019-Jun-08 14:59N 39°33' E 002°38'0 0.0
2019-Jun-08 14:29N 39°33' E 002°38'0 0.0
2019-Jun-08 13:59N 39°33' E 002°38'0 0.0
2019-Jun-08 13:26N 39°33' E 002°38'3 6.8
2019-Jun-08 13:00N 39°30' E 002°36'3775.2 050 / 201020.910.8 26.012.222.0
2019-Jun-08 12:59N 39°33' E 002°38'0 0.0
2019-Jun-08 12:29N 39°33' E 002°38'0 0.0
2019-Jun-08 11:59N 39°33' E 002°38'0 0.0
2019-Jun-08 11:29N 39°33' E 002°38'0 0.0
2019-Jun-08 10:59N 39°33' E 002°38'0 0.0
2019-Jun-08 10:29N 39°33' E 002°38'0 0.0
2019-Jun-08 09:59N 39°33' E 002°38'0 0.0
2019-Jun-08 09:29N 39°33' E 002°38'0 0.0
2019-Jun-08 08:59N 39°33' E 002°38'0 0.0
2019-Jun-08 08:29N 39°33' E 002°38'0 0.0
2019-Jun-08 07:59N 39°33' E 002°38'0 0.0
2019-Jun-08 07:29N 39°33' E 002°38'0 0.1
2019-Jun-08 07:00N 39°33' E 002°38'1 2.7
2019-Jun-08 06:31N 39°32' E 002°39'1 2.6
2019-Jun-08 06:00N 39°31' E 002°39'5 9.2
2019-Jun-08 05:30N 39°26' E 002°39'612.1
2019-Jun-08 05:00N 39°20' E 002°40'612.9
2019-Jun-08 04:30N 39°14' E 002°43'713.1
2019-Jun-08 04:00N 39°09' E 002°48'713.8
2019-Jun-08 03:30N 39°03' E 002°52'915.6
2019-Jun-08 02:55N 39°02' E 003°04'615.2
2019-Jun-08 02:30N 39°03' E 003°12'815.5
2019-Jun-08 01:59N 39°07' E 003°21'815.5
2019-Jun-08 01:28N 39°11' E 003°30'1415.6
2019-Jun-08 00:35N 39°17' E 003°46'215.5
2019-Jun-08 00:27N 39°18' E 003°48'815.4
2019-Jun-07 23:55N 39°22' E 003°58'615.3
2019-Jun-07 23:30N 39°25' E 004°05'815.2
2019-Jun-07 22:57N 39°29' E 004°14'3515.1
2019-Jun-07 20:38N 39°46' E 004°54'315.2
2019-Jun-07 20:27N 39°47' E 004°58'1315.4
2019-Jun-07 19:36N 39°53' E 005°13'8214.6
2019-Jun-07 14:00N 40°30' E 006°48'4916.3 240 / 151016.8 5.4 21.018.620.5
2019-Jun-07 10:58N 40°58' E 007°42'9 9.7
2019-Jun-07 10:00N 41°00' E 007°54'4118.7 090 / 151014.210.8 20.018.419.0
2019-Jun-07 07:48N 41°15' E 008°44'1317.1
2019-Jun-07 07:04N 41°17' E 009°01'216.9
2019-Jun-07 06:57N 41°17' E 009°04'7216.0
2019-Jun-07 02:27N 41°12' E 010°39'9817.7
2019-Jun-06 20:54N 40°49' E 012°46'717.4
2019-Jun-06 20:30N 40°47' E 012°55'917.4
2019-Jun-06 19:58N 40°45' E 013°06'817.3
2019-Jun-06 19:30N 40°43' E 013°17'917.4
2019-Jun-06 19:00N 40°41' E 013°28'917.3
2019-Jun-06 18:30N 40°39' E 013°39'917.2
2019-Jun-06 18:01N 40°38' E 013°50'917.3
2019-Jun-06 17:30N 40°38' E 014°02'917.0
2019-Jun-06 17:00N 40°41' E 014°13'714.0
2019-Jun-06 16:30N 40°39' E 014°22'1 1.6
2019-Jun-06 16:00N 40°39' E 014°23'0 0.0
2019-Jun-06 15:30N 40°39' E 014°23'0 0.0
2019-Jun-06 15:00N 40°39' E 014°23'0 0.0
2019-Jun-06 14:30N 40°39' E 014°23'0 0.0
2019-Jun-06 14:00N 40°39' E 014°23'0 0.1
2019-Jun-06 13:30N 40°39' E 014°23'0 0.2
2019-Jun-06 13:00N 40°39' E 014°23'0 0.2
2019-Jun-06 12:30N 40°39' E 014°23'0 0.1
2019-Jun-06 12:00N 40°39' E 014°23'0 0.1
2019-Jun-06 11:30N 40°39' E 014°23'0 0.0
2019-Jun-06 11:00N 40°39' E 014°23'0 0.0
2019-Jun-06 10:30N 40°39' E 014°23'0 0.0
2019-Jun-06 10:00N 40°39' E 014°23'0 0.1
2019-Jun-06 09:30N 40°39' E 014°23'0 0.1
2019-Jun-06 09:00N 40°39' E 014°23'0 0.0
2019-Jun-06 08:30N 40°39' E 014°23'0 0.0
2019-Jun-06 08:00N 40°39' E 014°23'0 0.0
2019-Jun-06 07:30N 40°39' E 014°23'0 0.0
2019-Jun-06 07:00N 40°39' E 014°23'0 0.0
2019-Jun-06 06:30N 40°39' E 014°23'0 0.1
2019-Jun-06 06:00N 40°39' E 014°23'0 0.1
2019-Jun-06 05:30N 40°39' E 014°23'  
Track history (hours):
 
Tides and Currents Weather Stations Pressure Air Temp Water Temp Dewpoint Dewpoint Depression Visibility Wind Speed Wind Dir Waves Ship Positions

Aurora (Bermuda)

Last reported at 2019-Jun-16 05:26 UTC. Time now 2019-Jun-16 15:24 UTC.
Position N 43°27' W 003°49'.

Length 271 m; draft 8.3 m.

Type: Ship. MMSI: 310555970.

Date/timePositionNaut miles runAvg speedWind from/ knotsBaromVisibWave heightAir tempDewpointWater temp
2019-Jun-16 05:26N 43°27' W 003°49'3 6.1
2019-Jun-16 04:58N 43°28' W 003°45'4 9.0
2019-Jun-16 04:30N 43°32' W 003°45'611.5
2019-Jun-16 04:01N 43°38' W 003°47'612.1
2019-Jun-16 03:30N 43°44' W 003°49'612.5
2019-Jun-16 03:00N 43°50' W 003°51'612.6
2019-Jun-16 02:31N 43°56' W 003°53'612.4
2019-Jun-16 02:00N 44°02' W 003°55'612.4
2019-Jun-16 01:30N 44°08' W 003°57'1012.2
2019-Jun-16 00:40N 44°18' W 004°00'312.1
2019-Jun-16 00:27N 44°20' W 004°01'714.5
2019-Jun-15 23:58N 44°27' W 004°03'3311.2
2019-Jun-15 21:00N 45°00' W 004°12'14417.4 240 / 251021.427.0 15.013.215.0
2019-Jun-15 12:41N 47°20' W 005°01'2215.4
2019-Jun-15 11:15N 47°42' W 005°09'515.4
2019-Jun-15 10:56N 47°46' W 005°11'614.9
2019-Jun-15 10:31N 47°53' W 005°13'814.8
2019-Jun-15 10:00N 47°60' W 005°15'815.4
2019-Jun-15 09:31N 48°07' W 005°18'816.1
2019-Jun-15 09:01N 48°15' W 005°21'816.8
2019-Jun-15 08:31N 48°23' W 005°24'816.1
2019-Jun-15 08:00N 48°31' W 005°22'917.8
2019-Jun-15 07:31N 48°38' W 005°14'917.6
2019-Jun-15 07:01N 48°45' W 005°05'917.1
2019-Jun-15 06:31N 48°50' W 004°55'816.3
2019-Jun-15 06:01N 48°56' W 004°46'815.5
2019-Jun-15 05:30N 49°01' W 004°37'3514.1
2019-Jun-15 03:01N 49°27' W 004°00'114.5
2019-Jun-15 02:56N 49°28' W 003°59'614.3
2019-Jun-15 02:31N 49°31' W 003°51'714.7
2019-Jun-15 02:01N 49°34' W 003°41'815.1
2019-Jun-15 01:30N 49°38' W 003°31'815.8
2019-Jun-15 01:00N 49°43' W 003°21'816.8
2019-Jun-15 00:30N 49°48' W 003°12'917.3
2019-Jun-15 00:01N 49°55' W 003°03'816.5
2019-Jun-14 23:31N 49°60' W 002°52'917.9
2019-Jun-14 23:01N 50°02' W 002°39'918.1
2019-Jun-14 22:31N 50°05' W 002°26'1117.7
2019-Jun-14 21:55N 50°10' W 002°11'717.1
2019-Jun-14 21:30N 50°13' W 002°01'916.4
2019-Jun-14 20:59N 50°17' W 001°49'715.7
2019-Jun-14 20:30N 50°20' W 001°39'815.1
2019-Jun-14 20:00N 50°24' W 001°28'714.5
2019-Jun-14 19:29N 50°27' W 001°18'713.8
2019-Jun-14 19:00N 50°30' W 001°08'613.0
2019-Jun-14 18:30N 50°35' W 001°01'713.7
2019-Jun-14 18:00N 50°41' W 000°58'611.2
2019-Jun-14 17:30N 50°44' W 001°05'917.6
2019-Jun-14 17:01N 50°47' W 001°18'5 9.1
2019-Jun-14 16:30N 50°51' W 001°21'4 8.7
2019-Jun-14 16:00N 50°54' W 001°26'0 0.1
2019-Jun-14 15:19N 50°54' W 001°26'0 0.0
2019-Jun-14 14:58N 50°54' W 001°26'0 0.0
2019-Jun-14 14:25N 50°54' W 001°26'0 0.0
2019-Jun-14 13:55N 50°54' W 001°26'0 0.0
2019-Jun-14 13:28N 50°54' W 001°26'0 0.0
2019-Jun-14 12:58N 50°54' W 001°26'0 0.0
2019-Jun-14 12:19N 50°54' W 001°26'0 0.0
2019-Jun-14 11:58N 50°54' W 001°26'0 0.0
2019-Jun-14 11:28N 50°54' W 001°26'0 0.0
2019-Jun-14 10:55N 50°54' W 001°26'0 0.0
2019-Jun-14 10:22N 50°54' W 001°26'0 0.0
2019-Jun-14 09:55N 50°54' W 001°26'0 0.0
2019-Jun-14 09:28N 50°54' W 001°26'0 0.0
2019-Jun-14 08:55N 50°54' W 001°26'0 0.0
2019-Jun-14 08:25N 50°54' W 001°26'0 0.0
2019-Jun-14 07:55N 50°54' W 001°26'0 0.0
2019-Jun-14 07:25N 50°54' W 001°26'0 0.0
2019-Jun-14 06:46N 50°54' W 001°26'0 0.0
2019-Jun-14 06:25N 50°54' W 001°26'0 0.0
2019-Jun-14 05:55N 50°54' W 001°26'0 0.6
2019-Jun-14 05:30N 50°54' W 001°26'1 2.9
2019-Jun-14 05:00N 50°53' W 001°24'4 8.7
2019-Jun-14 04:31N 50°50' W 001°19'4 7.9
2019-Jun-14 04:01N 50°46' W 001°18'713.5
2019-Jun-14 03:30N 50°45' W 001°08'713.9
2019-Jun-14 03:01N 50°42' W 000°58'5 9.3
2019-Jun-14 02:31N 50°37' W 000°59'714.8
2019-Jun-14 02:01N 50°31' W 001°05'714.6
2019-Jun-14 01:30N 50°29' W 001°16'1012.7
2019-Jun-14 00:45N 50°27' W 001°30'310.7
2019-Jun-14 00:26N 50°26' W 001°35'410.4
2019-Jun-14 00:00N 50°24' W 001°42'510.0
2019-Jun-13 23:30N 50°23' W 001°50'611.0
2019-Jun-13 23:00N 50°21' W 001°58'612.7
2019-Jun-13 22:30N 50°19' W 002°07'713.1
2019-Jun-13 22:00N 50°18' W 002°17'713.7
2019-Jun-13 21:30N 50°16' W 002°28'714.2
2019-Jun-13 21:00N 50°15' W 002°39'714.7
2019-Jun-13 20:30N 50°14' W 002°50'714.7
2019-Jun-13 20:01N 50°11' W 003°01'815.3
2019-Jun-13 19:31N 50°05' W 003°08'815.4
2019-Jun-13 19:01N 49°59' W 003°16'815.5
2019-Jun-13 18:30N 49°56' W 003°27'815.7
2019-Jun-13 18:00N 49°51' W 003°36'815.8
2019-Jun-13 17:30N 49°46' W 003°46'815.8
2019-Jun-13 17:01N 49°42' W 003°56'815.9
2019-Jun-13 16:30N 49°37' W 004°06'816.0
2019-Jun-13 16:01N 49°32' W 004°16'5716.5
2019-Jun-13 12:32N 48°55' W 005°22'117.5
2019-Jun-13 12:29N 48°54' W 005°23'817.5
2019-Jun-13 12:00N 48°49' W 005°33'9519.0
2019-Jun-13 07:00N 47°24' W 006°36'36715.9 280 / 121010.410.8 13.0 7.915.3
2019-Jun-12 08:00N 41°42' W 009°42'13414.4 040 / 201017.210.8 15.0 9.217.4
2019-Jun-11 22:40N 39°28' W 009°46'315.4
2019-Jun-11 22:30N 39°25' W 009°46'815.7
2019-Jun-11 22:00N 39°17' W 009°46'815.7
2019-Jun-11 21:30N 39°10' W 009°44'815.5
2019-Jun-11 21:00N 39°02' W 009°44'815.5
2019-Jun-11 20:31N 38°54' W 009°44'815.4
2019-Jun-11 20:00N 38°46' W 009°43'815.1
2019-Jun-11 19:30N 38°39' W 009°40'816.2
2019-Jun-11 19:00N 38°37' W 009°31'714.4
2019-Jun-11 18:30N 38°38' W 009°21'4 8.9
2019-Jun-11 18:00N 38°41' W 009°17'5 9.2
2019-Jun-11 17:30N 38°41' W 009°11'3 6.6
2019-Jun-11 17:00N 38°43' W 009°07'0 0.0
2019-Jun-11 16:29N 38°43' W 009°07'0 0.0
2019-Jun-11 15:59N 38°43' W 009°07'0 0.0
2019-Jun-11 15:29N 38°43' W 009°07'0 0.0
2019-Jun-11 14:59N 38°43' W 009°07'0 0.0
2019-Jun-11 14:29N 38°43' W 009°07'0 0.0
2019-Jun-11 13:59N 38°43' W 009°07'0 0.0
2019-Jun-11 13:29N 38°43' W 009°07'0 0.0
2019-Jun-11 12:59N 38°43' W 009°07'0 0.0
2019-Jun-11 12:29N 38°43' W 009°07'0 0.0
2019-Jun-11 11:59N 38°43' W 009°07'0 0.0
2019-Jun-11 11:29N 38°43' W 009°07'0 0.0
2019-Jun-11 10:59N 38°43' W 009°07'0 0.0
2019-Jun-11 10:29N 38°43' W 009°07'0 0.0
2019-Jun-11 09:59N 38°43' W 009°07'0 0.0
2019-Jun-11 09:29N 38°43' W 009°07'0 0.0
2019-Jun-11 08:59N 38°43' W 009°07'0 0.0
2019-Jun-11 08:29N 38°43' W 009°07'0 0.0
2019-Jun-11 07:59N 38°43' W 009°07'0 0.1
2019-Jun-11 07:30N 38°43' W 009°07'3 5.0
2019-Jun-11 07:00N 38°41' W 009°10'612.0
2019-Jun-11 06:30N 38°41' W 009°18'815.5
2019-Jun-11 06:00N 38°35' W 009°24'816.2
2019-Jun-11 05:30N 38°27' W 009°24'817.0
2019-Jun-11 05:00N 38°18' W 009°24'917.3
2019-Jun-11 04:30N 38°09' W 009°24'917.4
2019-Jun-11 04:00N 38°01' W 009°24'917.8
2019-Jun-11 03:30N 37°52' W 009°23'917.9
2019-Jun-11 03:00N 37°43' W 009°23'917.9
2019-Jun-11 02:30N 37°34' W 009°23'1017.9
2019-Jun-11 01:57N 37°24' W 009°22'818.0
2019-Jun-11 01:30N 37°16' W 009°22'1619.8
2019-Jun-11 00:41N 36°60' W 009°22'421.0
2019-Jun-11 00:30N 36°56' W 009°21'1320.4
2019-Jun-10 23:52N 36°46' W 009°12'821.1
2019-Jun-10 23:30N 36°43' W 009°02'1020.8
2019-Jun-10 23:00N 36°40' W 008°50'1220.4
2019-Jun-10 22:26N 36°37' W 008°36'818.6
2019-Jun-10 22:00N 36°34' W 008°27'1017.7
2019-Jun-10 21:26N 36°31' W 008°14'817.8
2019-Jun-10 21:00N 36°29' W 008°06'917.7
2019-Jun-10 20:30N 36°26' W 007°55'234 9.5
2019-Jun-09 20:01N 36°22' W 003°05'6213.9
2019-Jun-09 15:34N 36°36' W 001°50'114.1
2019-Jun-09 15:30N 36°37' W 001°49'16114.0
2019-Jun-09 04:00N 38°12' E 000°54'7817.9 350 / 351013.110.8 20.016.722.2
2019-Jun-08 23:38N 39°03' E 002°10'1416.1
2019-Jun-08 22:45N 39°14' E 002°21'415.9
2019-Jun-08 22:30N 39°16' E 002°25'815.7
2019-Jun-08 22:00N 39°21' E 002°33'815.6
2019-Jun-08 21:30N 39°28' E 002°37'510.4
2019-Jun-08 21:00N 39°33' E 002°38'1 1.0
2019-Jun-08 20:29N 39°33' E 002°38'0 0.0
2019-Jun-08 19:59N 39°33' E 002°38'0 0.0
2019-Jun-08 19:29N 39°33' E 002°38'0 0.0
2019-Jun-08 18:59N 39°33' E 002°38'0 0.0
2019-Jun-08 18:29N 39°33' E 002°38'0 0.0
2019-Jun-08 17:59N 39°33' E 002°38'0 0.0
2019-Jun-08 17:29N 39°33' E 002°38'0 0.0
2019-Jun-08 16:59N 39°33' E 002°38'0 0.0
2019-Jun-08 16:29N 39°33' E 002°38'0 0.0
2019-Jun-08 15:59N 39°33' E 002°38'0 0.0
2019-Jun-08 15:29N 39°33' E 002°38'0 0.0
2019-Jun-08 14:59N 39°33' E 002°38'0 0.0
2019-Jun-08 14:29N 39°33' E 002°38'0 0.0
2019-Jun-08 13:59N 39°33' E 002°38'0 0.0
2019-Jun-08 13:26N 39°33' E 002°38'3 6.8
2019-Jun-08 13:00N 39°30' E 002°36'3775.2 050 / 201020.910.8 26.012.222.0
2019-Jun-08 12:59N 39°33' E 002°38'0 0.0
2019-Jun-08 12:29N 39°33' E 002°38'0 0.0
2019-Jun-08 11:59N 39°33' E 002°38'0 0.0
2019-Jun-08 11:29N 39°33' E 002°38'0 0.0
2019-Jun-08 10:59N 39°33' E 002°38'0 0.0
2019-Jun-08 10:29N 39°33' E 002°38'0 0.0
2019-Jun-08 09:59N 39°33' E 002°38'0 0.0
2019-Jun-08 09:29N 39°33' E 002°38'0 0.0
2019-Jun-08 08:59N 39°33' E 002°38'0 0.0
2019-Jun-08 08:29N 39°33' E 002°38'0 0.0
2019-Jun-08 07:59N 39°33' E 002°38'0 0.0
2019-Jun-08 07:29N 39°33' E 002°38'0 0.1
2019-Jun-08 07:00N 39°33' E 002°38'1 2.7
2019-Jun-08 06:31N 39°32' E 002°39'1 2.6
2019-Jun-08 06:00N 39°31' E 002°39'5 9.2
2019-Jun-08 05:30N 39°26' E 002°39'612.1
2019-Jun-08 05:00N 39°20' E 002°40'612.9
2019-Jun-08 04:30N 39°14' E 002°43'713.1
2019-Jun-08 04:00N 39°09' E 002°48'713.8
2019-Jun-08 03:30N 39°03' E 002°52'915.6
2019-Jun-08 02:55N 39°02' E 003°04'615.2
2019-Jun-08 02:30N 39°03' E 003°12'815.5
2019-Jun-08 01:59N 39°07' E 003°21'815.5
2019-Jun-08 01:28N 39°11' E 003°30'1415.6
2019-Jun-08 00:35N 39°17' E 003°46'215.5
2019-Jun-08 00:27N 39°18' E 003°48'815.4
2019-Jun-07 23:55N 39°22' E 003°58'615.3
2019-Jun-07 23:30N 39°25' E 004°05'815.2
2019-Jun-07 22:57N 39°29' E 004°14'3515.1
2019-Jun-07 20:38N 39°46' E 004°54'315.2
2019-Jun-07 20:27N 39°47' E 004°58'1315.4
2019-Jun-07 19:36N 39°53' E 005°13'8214.6
2019-Jun-07 14:00N 40°30' E 006°48'4916.3 240 / 151016.8 5.4 21.018.620.5
2019-Jun-07 10:58N 40°58' E 007°42'9 9.7
2019-Jun-07 10:00N 41°00' E 007°54'4118.7 090 / 151014.210.8 20.018.419.0
2019-Jun-07 07:48N 41°15' E 008°44'1317.1
2019-Jun-07 07:04N 41°17' E 009°01'216.9
2019-Jun-07 06:57N 41°17' E 009°04'7216.0
2019-Jun-07 02:27N 41°12' E 010°39'9817.7
2019-Jun-06 20:54N 40°49' E 012°46'717.4
2019-Jun-06 20:30N 40°47' E 012°55'917.4
2019-Jun-06 19:58N 40°45' E 013°06'817.3
2019-Jun-06 19:30N 40°43' E 013°17'917.4
2019-Jun-06 19:00N 40°41' E 013°28'917.3
2019-Jun-06 18:30N 40°39' E 013°39'917.2
2019-Jun-06 18:01N 40°38' E 013°50'917.3
2019-Jun-06 17:30N 40°38' E 014°02'917.0
2019-Jun-06 17:00N 40°41' E 014°13'714.0
2019-Jun-06 16:30N 40°39' E 014°22'1 1.6
2019-Jun-06 16:00N 40°39' E 014°23'0 0.0
2019-Jun-06 15:30N 40°39' E 014°23'0 0.0
2019-Jun-06 15:00N 40°39' E 014°23'0 0.0
2019-Jun-06 14:30N 40°39' E 014°23'0 0.0
2019-Jun-06 14:00N 40°39' E 014°23'0 0.1
2019-Jun-06 13:30N 40°39' E 014°23'0 0.2
2019-Jun-06 13:00N 40°39' E 014°23'0 0.2
2019-Jun-06 12:30N 40°39' E 014°23'0 0.1
2019-Jun-06 12:00N 40°39' E 014°23'0 0.1
2019-Jun-06 11:30N 40°39' E 014°23'0 0.0
2019-Jun-06 11:00N 40°39' E 014°23'0 0.0
2019-Jun-06 10:30N 40°39' E 014°23'0 0.0
2019-Jun-06 10:00N 40°39' E 014°23'0 0.1
2019-Jun-06 09:30N 40°39' E 014°23'0 0.1
2019-Jun-06 09:00N 40°39' E 014°23'0 0.0
2019-Jun-06 08:30N 40°39' E 014°23'0 0.0
2019-Jun-06 08:00N 40°39' E 014°23'0 0.0
2019-Jun-06 07:30N 40°39' E 014°23'0 0.0
2019-Jun-06 07:00N 40°39' E 014°23'0 0.0
2019-Jun-06 06:30N 40°39' E 014°23'0 0.1
2019-Jun-06 06:00N 40°39' E 014°23'0 0.1
2019-Jun-06 05:30N 40°39' E 014°23'  

Dump ship's entire track history